Terminal Aerodrome Forecast
Issued by NWS Charleston, WV

Current Version | Previous Version | Graphics & Text | Print | Product List | Glossary On
Versions: 1 2 3 4 5 6 7 8 9 10 11 12 13 14 15 16 17 18 19 20 21 22 23 24 25 26
125
FTUS41 KRLX 161732
TAFBKW
TAF
KBKW 161732Z 1618/1718 17005KT P6SM OVC035
     FM170300 15005KT P6SM OVC030
     FM171000 17007KT 3SM -SHRA SCT004 OVC010
     FM171600 20009G15KT 3SM -SHRA OVC015=

USA.gov is the U.S. government's official web portal to all federal, state and local government web resources and services.